CMA CGM Homere — MQBL6 — position and weather

sailwx.info

Track history (hours):
 
Tides and Currents Weather Stations Pressure Air Temp Water Temp Dewpoint Dewpoint Depression Visibility Wind Speed Wind Dir Waves Ship Positions

CMA CGM Homere

Last reported at 2014-Oct-20 09:34 UTC. Time now 2014-Oct-20 09:44 UTC.
Position N 51°28' E 000°20'.

Length 170 m; draft 7.9 m.

Type: Ship (hazmat cat A). MMSI: 235052314.

Date/timePositionNaut miles runAvg speedWind from/ knotsBaromVisibWave heightAir tempDewpointWater temp
2014-Oct-20 09:34N 51°28' E 000°20'0 0.0
2014-Oct-20 08:34N 51°28' E 000°20'0 0.0
2014-Oct-20 07:34N 51°28' E 000°20'0 0.0
2014-Oct-20 06:34N 51°28' E 000°20'0 0.0
2014-Oct-20 05:34N 51°28' E 000°20'0 0.0
2014-Oct-20 04:34N 51°28' E 000°20'0 0.0
2014-Oct-20 03:34N 51°28' E 000°20'0 0.0
2014-Oct-20 02:34N 51°28' E 000°20'0 0.0
2014-Oct-20 01:34N 51°28' E 000°20'0 0.0
2014-Oct-20 00:34N 51°28' E 000°20'0 0.0
2014-Oct-19 23:34N 51°28' E 000°20'0 0.0
2014-Oct-19 22:34N 51°28' E 000°20'0 0.0
2014-Oct-19 21:34N 51°28' E 000°20'0 0.0
2014-Oct-19 20:34N 51°28' E 000°20'0 0.0
2014-Oct-19 19:34N 51°28' E 000°20'0 0.0
2014-Oct-19 18:34N 51°28' E 000°20'0 0.0
2014-Oct-19 17:34N 51°28' E 000°20'0 0.0
2014-Oct-19 16:34N 51°28' E 000°20'0 0.0
2014-Oct-19 15:34N 51°28' E 000°20'0 0.0
2014-Oct-19 14:34N 51°28' E 000°20'0 0.0
2014-Oct-19 13:34N 51°28' E 000°20'0 0.0
2014-Oct-19 12:34N 51°28' E 000°20'0 0.0
2014-Oct-19 11:34N 51°28' E 000°20'0 0.0
2014-Oct-19 10:34N 51°28' E 000°20'0 0.0
2014-Oct-19 09:34N 51°28' E 000°20'0 0.0
2014-Oct-19 08:34N 51°28' E 000°20'1 0.6
2014-Oct-19 07:34N 51°27' E 000°20'0 0.3
2014-Oct-19 06:34N 51°27' E 000°20'0 0.0
2014-Oct-19 05:34N 51°27' E 000°20'0 0.0
2014-Oct-19 04:34N 51°27' E 000°20'0 0.0
2014-Oct-19 03:34N 51°27' E 000°20'0 0.0
2014-Oct-19 02:34N 51°27' E 000°20'0 0.0
2014-Oct-19 01:34N 51°27' E 000°20'0 0.0
2014-Oct-19 00:34N 51°27' E 000°20'0 0.0
2014-Oct-18 23:34N 51°27' E 000°20'0 0.0
2014-Oct-18 22:34N 51°27' E 000°20'0 0.0
2014-Oct-18 21:34N 51°27' E 000°20'0 0.0
2014-Oct-18 20:34N 51°27' E 000°20'0 0.0
2014-Oct-18 19:34N 51°27' E 000°20'0 0.0
2014-Oct-18 18:34N 51°27' E 000°20'0 0.0
2014-Oct-18 17:34N 51°27' E 000°20'2 2.4
2014-Oct-18 16:34N 51°27' E 000°24'1010.3
2014-Oct-18 15:33N 51°30' E 000°40'1514.6
2014-Oct-18 14:33N 51°31' E 001°03'1313.2
2014-Oct-18 13:33N 51°38' E 001°20'1414.4
2014-Oct-18 12:33N 51°49' E 001°36'7 7.1
2014-Oct-18 11:33N 51°51' E 001°47'1616.1
2014-Oct-18 10:33N 51°55' E 002°12'3517.3
2014-Oct-18 08:32N 52°03' E 003°07'1817.8
2014-Oct-18 07:32N 52°03' E 003°36'1212.6
2014-Oct-18 06:34N 52°02' E 003°56'1313.4
2014-Oct-18 05:33N 51°55' E 004°15'6 5.8
2014-Oct-18 04:33N 51°53' E 004°24'0 0.0
2014-Oct-18 03:33N 51°53' E 004°24'0 0.0
2014-Oct-18 02:30N 51°53' E 004°24'0 0.0
2014-Oct-18 01:30N 51°53' E 004°24'0 0.0
2014-Oct-18 00:33N 51°53' E 004°24'0 0.0
2014-Oct-17 23:33N 51°53' E 004°24'0 0.0
2014-Oct-17 22:33N 51°53' E 004°24'0 0.0
2014-Oct-17 21:33N 51°53' E 004°24'0 0.0
2014-Oct-17 20:30N 51°53' E 004°24'0 0.0
2014-Oct-17 19:33N 51°53' E 004°24'0 0.0
2014-Oct-17 18:33N 51°53' E 004°24'0 0.0
2014-Oct-17 17:33N 51°53' E 004°24'0 0.0
2014-Oct-17 16:33N 51°53' E 004°24'0 0.0
2014-Oct-17 15:33N 51°53' E 004°24'0 0.0
2014-Oct-17 14:33N 51°53' E 004°24'0 0.0
2014-Oct-17 13:33N 51°53' E 004°24'0 0.0
2014-Oct-17 12:30N 51°53' E 004°24'0 0.0
2014-Oct-17 11:33N 51°53' E 004°24'0 0.0
2014-Oct-17 10:30N 51°53' E 004°24'0 0.0
2014-Oct-17 09:33N 51°53' E 004°24'0 0.0
2014-Oct-17 08:33N 51°53' E 004°24'0 0.0
2014-Oct-17 07:33N 51°53' E 004°24'0 0.0
2014-Oct-17 06:33N 51°53' E 004°24'0 0.0
2014-Oct-17 05:33N 51°53' E 004°24'0 0.0
2014-Oct-17 04:33N 51°53' E 004°24'0 0.1
2014-Oct-17 03:33N 51°53' E 004°24'3 3.1
2014-Oct-17 02:33N 51°54' E 004°19'10 9.8
2014-Oct-17 01:34N 51°59' E 004°06'1111.1
2014-Oct-17 00:33N 52°01' E 003°48'1212.3
2014-Oct-16 23:33N 51°56' E 003°30'1413.3
2014-Oct-16 22:31N 51°52' E 003°09'3316.8
2014-Oct-16 20:33N 51°36' E 002°21'1616.4
2014-Oct-16 19:34N 51°24' E 002°04'1716.6
2014-Oct-16 18:34N 51°12' E 001°46'1717.0
2014-Oct-16 17:34N 50°58' E 001°31'1917.5
2014-Oct-16 16:29N 50°41' E 001°18'1617.0
2014-Oct-16 15:33N 50°31' E 000°58'1716.8
2014-Oct-16 14:34N 50°27' E 000°33'9418.0
2014-Oct-16 09:19N 50°01' W 001°49'2217.9
2014-Oct-16 08:06N 49°56' W 002°22'13918.4
2014-Oct-16 00:33N 48°50' W 005°30'67218.6
2014-Oct-14 12:23N 38°02' W 009°39'1517.6
2014-Oct-14 11:33N 37°48' W 009°35'1817.4
2014-Oct-14 10:30N 37°30' W 009°30'6816.1
2014-Oct-14 06:18N 36°36' W 008°39'1418.3
2014-Oct-14 05:33N 36°32' W 008°23'13817.2
2014-Oct-13 21:34N 35°58' W 005°37'1313.4
2014-Oct-13 20:33N 36°06' W 005°24'2 2.5
2014-Oct-13 19:33N 36°08' W 005°25'0 0.0
2014-Oct-13 18:33N 36°08' W 005°25'0 0.0
2014-Oct-13 17:33N 36°08' W 005°25'9 1.0
2014-Oct-13 08:16N 35°59' W 005°25'  
Track history (hours):
 
Tides and Currents Weather Stations Pressure Air Temp Water Temp Dewpoint Dewpoint Depression Visibility Wind Speed Wind Dir Waves Ship Positions

CMA CGM Homere

Last reported at 2014-Oct-20 09:34 UTC. Time now 2014-Oct-20 09:44 UTC.
Position N 51°28' E 000°20'.

Length 170 m; draft 7.9 m.

Type: Ship (hazmat cat A). MMSI: 235052314.

Date/timePositionNaut miles runAvg speedWind from/ knotsBaromVisibWave heightAir tempDewpointWater temp
2014-Oct-20 09:34N 51°28' E 000°20'0 0.0
2014-Oct-20 08:34N 51°28' E 000°20'0 0.0
2014-Oct-20 07:34N 51°28' E 000°20'0 0.0
2014-Oct-20 06:34N 51°28' E 000°20'0 0.0
2014-Oct-20 05:34N 51°28' E 000°20'0 0.0
2014-Oct-20 04:34N 51°28' E 000°20'0 0.0
2014-Oct-20 03:34N 51°28' E 000°20'0 0.0
2014-Oct-20 02:34N 51°28' E 000°20'0 0.0
2014-Oct-20 01:34N 51°28' E 000°20'0 0.0
2014-Oct-20 00:34N 51°28' E 000°20'0 0.0
2014-Oct-19 23:34N 51°28' E 000°20'0 0.0
2014-Oct-19 22:34N 51°28' E 000°20'0 0.0
2014-Oct-19 21:34N 51°28' E 000°20'0 0.0
2014-Oct-19 20:34N 51°28' E 000°20'0 0.0
2014-Oct-19 19:34N 51°28' E 000°20'0 0.0
2014-Oct-19 18:34N 51°28' E 000°20'0 0.0
2014-Oct-19 17:34N 51°28' E 000°20'0 0.0
2014-Oct-19 16:34N 51°28' E 000°20'0 0.0
2014-Oct-19 15:34N 51°28' E 000°20'0 0.0
2014-Oct-19 14:34N 51°28' E 000°20'0 0.0
2014-Oct-19 13:34N 51°28' E 000°20'0 0.0
2014-Oct-19 12:34N 51°28' E 000°20'0 0.0
2014-Oct-19 11:34N 51°28' E 000°20'0 0.0
2014-Oct-19 10:34N 51°28' E 000°20'0 0.0
2014-Oct-19 09:34N 51°28' E 000°20'0 0.0
2014-Oct-19 08:34N 51°28' E 000°20'1 0.6
2014-Oct-19 07:34N 51°27' E 000°20'0 0.3
2014-Oct-19 06:34N 51°27' E 000°20'0 0.0
2014-Oct-19 05:34N 51°27' E 000°20'0 0.0
2014-Oct-19 04:34N 51°27' E 000°20'0 0.0
2014-Oct-19 03:34N 51°27' E 000°20'0 0.0
2014-Oct-19 02:34N 51°27' E 000°20'0 0.0
2014-Oct-19 01:34N 51°27' E 000°20'0 0.0
2014-Oct-19 00:34N 51°27' E 000°20'0 0.0
2014-Oct-18 23:34N 51°27' E 000°20'0 0.0
2014-Oct-18 22:34N 51°27' E 000°20'0 0.0
2014-Oct-18 21:34N 51°27' E 000°20'0 0.0
2014-Oct-18 20:34N 51°27' E 000°20'0 0.0
2014-Oct-18 19:34N 51°27' E 000°20'0 0.0
2014-Oct-18 18:34N 51°27' E 000°20'0 0.0
2014-Oct-18 17:34N 51°27' E 000°20'2 2.4
2014-Oct-18 16:34N 51°27' E 000°24'1010.3
2014-Oct-18 15:33N 51°30' E 000°40'1514.6
2014-Oct-18 14:33N 51°31' E 001°03'1313.2
2014-Oct-18 13:33N 51°38' E 001°20'1414.4
2014-Oct-18 12:33N 51°49' E 001°36'7 7.1
2014-Oct-18 11:33N 51°51' E 001°47'1616.1
2014-Oct-18 10:33N 51°55' E 002°12'3517.3
2014-Oct-18 08:32N 52°03' E 003°07'1817.8
2014-Oct-18 07:32N 52°03' E 003°36'1212.6
2014-Oct-18 06:34N 52°02' E 003°56'1313.4
2014-Oct-18 05:33N 51°55' E 004°15'6 5.8
2014-Oct-18 04:33N 51°53' E 004°24'0 0.0
2014-Oct-18 03:33N 51°53' E 004°24'0 0.0
2014-Oct-18 02:30N 51°53' E 004°24'0 0.0
2014-Oct-18 01:30N 51°53' E 004°24'0 0.0
2014-Oct-18 00:33N 51°53' E 004°24'0 0.0
2014-Oct-17 23:33N 51°53' E 004°24'0 0.0
2014-Oct-17 22:33N 51°53' E 004°24'0 0.0
2014-Oct-17 21:33N 51°53' E 004°24'0 0.0
2014-Oct-17 20:30N 51°53' E 004°24'0 0.0
2014-Oct-17 19:33N 51°53' E 004°24'0 0.0
2014-Oct-17 18:33N 51°53' E 004°24'0 0.0
2014-Oct-17 17:33N 51°53' E 004°24'0 0.0
2014-Oct-17 16:33N 51°53' E 004°24'0 0.0
2014-Oct-17 15:33N 51°53' E 004°24'0 0.0
2014-Oct-17 14:33N 51°53' E 004°24'0 0.0
2014-Oct-17 13:33N 51°53' E 004°24'0 0.0
2014-Oct-17 12:30N 51°53' E 004°24'0 0.0
2014-Oct-17 11:33N 51°53' E 004°24'0 0.0
2014-Oct-17 10:30N 51°53' E 004°24'0 0.0
2014-Oct-17 09:33N 51°53' E 004°24'0 0.0
2014-Oct-17 08:33N 51°53' E 004°24'0 0.0
2014-Oct-17 07:33N 51°53' E 004°24'0 0.0
2014-Oct-17 06:33N 51°53' E 004°24'0 0.0
2014-Oct-17 05:33N 51°53' E 004°24'0 0.0
2014-Oct-17 04:33N 51°53' E 004°24'0 0.1
2014-Oct-17 03:33N 51°53' E 004°24'3 3.1
2014-Oct-17 02:33N 51°54' E 004°19'10 9.8
2014-Oct-17 01:34N 51°59' E 004°06'1111.1
2014-Oct-17 00:33N 52°01' E 003°48'1212.3
2014-Oct-16 23:33N 51°56' E 003°30'1413.3
2014-Oct-16 22:31N 51°52' E 003°09'3316.8
2014-Oct-16 20:33N 51°36' E 002°21'1616.4
2014-Oct-16 19:34N 51°24' E 002°04'1716.6
2014-Oct-16 18:34N 51°12' E 001°46'1717.0
2014-Oct-16 17:34N 50°58' E 001°31'1917.5
2014-Oct-16 16:29N 50°41' E 001°18'1617.0
2014-Oct-16 15:33N 50°31' E 000°58'1716.8
2014-Oct-16 14:34N 50°27' E 000°33'9418.0
2014-Oct-16 09:19N 50°01' W 001°49'2217.9
2014-Oct-16 08:06N 49°56' W 002°22'13918.4
2014-Oct-16 00:33N 48°50' W 005°30'67218.6
2014-Oct-14 12:23N 38°02' W 009°39'1517.6
2014-Oct-14 11:33N 37°48' W 009°35'1817.4
2014-Oct-14 10:30N 37°30' W 009°30'6816.1
2014-Oct-14 06:18N 36°36' W 008°39'1418.3
2014-Oct-14 05:33N 36°32' W 008°23'13817.2
2014-Oct-13 21:34N 35°58' W 005°37'1313.4
2014-Oct-13 20:33N 36°06' W 005°24'2 2.5
2014-Oct-13 19:33N 36°08' W 005°25'0 0.0
2014-Oct-13 18:33N 36°08' W 005°25'0 0.0
2014-Oct-13 17:33N 36°08' W 005°25'9 1.0
2014-Oct-13 08:16N 35°59' W 005°25'  

Dump ship's entire track history